Voltar à página inicial

100m

POS PILOTO VIATURA ANO TEMPO
1 9 Lino Manuel Subaru Impresa 2003 00:05,182
2 4 Adalberto Melim Alfa Romeo 4C 2016 00:05,300
3 18 Bruno Martins BMW E30 M3 1988 00:05,889
4 17 Mário Meiavia Subaru Impresa 1999 00:05,920
5 6 Gustavo Gama Honda S2000 2001 00:05,924
6 16 Tiago Mateus Toyota AE86 1984 00:06,007
7 2 Pedro Augusto Toyota MR2 2.0 GTI 16 V 1991 00:06,277
8 1 Nuno Ferreira Fiat 124 ST 1974 00:06,589
9 15 Tiago Prata Mazda MX-5 2000 00:06,852
10 11 Jorge Baptista Datsun 1200 1973 00:06,864
11 8 Rui Nobre Mazda MX-5 1999 00:06,906
12 23 Nério Jesus Toyota GT86 2012 00:06,934
13 21 Pedro Marques BMW E30 1983 00:06,948
14 5 Luis Brito Chevrolet LeBaron 1989 00:07,136
15 7 João Sequeira Fiat Seiscento 1998 00:07,197
16 22 Rui da Silva Toyota Corola 1993 00:07,894
17 25 João Ferreira Ford Escort 1987 00:07,922
18 3 Paulo Gomes Toyota Starlet 1983 00:08,063
19 19 Rui Cordeiro Volkswagen Polo 1984 00:08,190
20 20 Bernardo Bernardo Toyota Starlet 1984 00:08,525
21 12 Vitor Santos Ford Escort 1971 00:08,584
22 10 Iolanda Morgado Mazda MX-5 2000 00:08,868
23 14 José Marques Volvo 240 1986 00:09,435
24 24 Márcio Oliveira Citroen Diane 1977 00:11,744